Time;durP1;ratioP1;P1;durP2;ratioP2;P2;SDS_P1;SDS_P2;PMS_P1;PMS_P2;Temp;Humidity;BMP_temperature;BMP_pressure;BME280_temperature;BME280_humidity;BME280_pressure;Samples;Min_cycle;Max_cycle;Signal;HPM_P1;HPM_P2
2022/12/07 00:01:31;;;;;;;12.70;8.38;;;;;;;;;;5075250;28;20043;-79
2022/12/07 00:04:04;;;;;;;14.40;8.40;;;;;;;;;;5074254;28;20028;-82
2022/12/07 00:06:40;;;;;;;19.55;9.00;;;;;;;;;;5075141;28;20431;-80
2022/12/07 00:09:07;;;;;;;18.88;11.80;;;;;;;;;;5070041;28;20051;-80
2022/12/07 00:11:33;;;;;;;9.48;7.53;;;;;;;;;;5074017;28;20115;-80
2022/12/07 00:14:02;;;;;;;13.57;8.48;;;;;;;;;;5073796;28;20044;-81
2022/12/07 00:16:31;;;;;;;13.15;7.40;;;;;;;;;;5075401;28;20116;-81
2022/12/07 00:18:56;;;;;;;14.32;7.97;;;;;;;;;;5073988;28;20028;-81
2022/12/07 00:21:25;;;;;;;13.40;9.63;;;;;;;;;;5072958;28;20155;-80
2022/12/07 00:23:53;;;;;;;14.27;9.35;;;;;;;;;;5072104;28;20028;-82
2022/12/07 00:26:23;;;;;;;20.23;9.48;;;;;;;;;;5071879;28;20032;-80
2022/12/07 00:28:52;;;;;;;15.07;8.50;;;;;;;;;;5072133;28;20024;-81
2022/12/07 00:31:20;;;;;;;10.05;8.23;;;;;;;;;;5074447;28;20033;-80
2022/12/07 00:33:46;;;;;;;10.63;8.18;;;;;;;;;;5072289;28;20024;-82
2022/12/07 00:36:24;;;;;;;18.60;9.27;;;;;;;;;;5072165;28;20040;-81
2022/12/07 00:38:49;;;;;;;15.75;10.18;;;;;;;;;;5105208;28;20051;-81
2022/12/07 00:41:21;;;;;;;17.75;8.13;;;;;;;;;;5073286;28;20036;-81
2022/12/07 00:43:48;;;;;;;18.90;8.52;;;;;;;;;;5103597;28;20364;-81
2022/12/07 00:46:14;;;;;;;15.23;8.35;;;;;;;;;;5074186;28;20021;-81
2022/12/07 00:48:40;;;;;;;14.43;8.43;;;;;;;;;;5072561;28;20054;-82
2022/12/07 00:51:06;;;;;;;15.13;8.95;;;;;;;;;;5073719;28;20036;-84
2022/12/07 00:53:35;;;;;;;12.65;8.23;;;;;;;;;;5073890;28;20032;-82
2022/12/07 00:56:08;;;;;;;10.07;8.25;;;;;;;;;;5071970;28;20045;-84
2022/12/07 00:58:34;;;;;;;11.48;8.32;;;;;;;;;;5072660;28;20078;-81
2022/12/07 01:01:02;;;;;;;12.82;8.60;;;;;;;;;;5075559;28;20020;-85
2022/12/07 01:03:27;;;;;;;14.90;8.82;;;;;;;;;;5073754;28;20032;-84
2022/12/07 01:05:55;;;;;;;9.27;7.20;;;;;;;;;;5073769;28;20020;-83
2022/12/07 01:08:22;;;;;;;17.40;8.52;;;;;;;;;;5073720;28;20083;-81
2022/12/07 01:10:48;;;;;;;22.65;10.85;;;;;;;;;;5072692;28;20119;-84
2022/12/07 01:13:15;;;;;;;17.58;8.52;;;;;;;;;;5074040;28;20114;-85
2022/12/07 01:15:42;;;;;;;16.45;9.60;;;;;;;;;;5072762;28;20988;-81
2022/12/07 01:18:08;;;;;;;16.27;9.00;;;;;;;;;;5073114;28;20031;-81
2022/12/07 01:20:33;;;;;;;12.05;6.57;;;;;;;;;;5073256;28;20029;-82
2022/12/07 01:22:58;;;;;;;8.93;7.75;;;;;;;;;;5073613;28;20044;-82
2022/12/07 01:25:24;;;;;;;13.32;7.63;;;;;;;;;;5071855;28;20020;-81
2022/12/07 01:27:49;;;;;;;9.10;8.23;;;;;;;;;;5073660;28;20447;-82
2022/12/07 01:30:15;;;;;;;18.38;10.88;;;;;;;;;;5073207;28;20033;-82
2022/12/07 01:32:40;;;;;;;17.75;9.32;;;;;;;;;;5073214;28;20024;-84
2022/12/07 01:35:06;;;;;;;11.95;8.70;;;;;;;;;;5073490;28;20028;-83
2022/12/07 01:37:38;;;;;;;16.88;7.80;;;;;;;;;;5072108;28;20028;-81
2022/12/07 01:40:07;;;;;;;14.27;8.90;;;;;;;;;;5073078;28;20017;-83
2022/12/07 01:42:34;;;;;;;11.27;7.70;;;;;;;;;;5073359;28;20468;-84
2022/12/07 01:45:17;;;;;;;14.23;7.38;;;;;;;;;;5071357;28;20513;-83
2022/12/07 01:48:03;;;;;;;15.43;9.43;;;;;;;;;;5073205;28;20028;-84
2022/12/07 01:50:31;;;;;;;10.60;7.30;;;;;;;;;;5072160;28;20040;-83
2022/12/07 01:52:58;;;;;;;15.45;8.98;;;;;;;;;;5071979;28;20598;-82
2022/12/07 01:55:24;;;;;;;23.63;10.70;;;;;;;;;;5072589;28;20036;-82
2022/12/07 01:57:53;;;;;;;15.20;8.00;;;;;;;;;;5071573;28;20392;-83
2022/12/07 02:00:19;;;;;;;26.15;9.77;;;;;;;;;;5073857;28;20529;-84
2022/12/07 02:02:53;;;;;;;12.38;7.50;;;;;;;;;;5072492;28;20040;-82
2022/12/07 02:05:19;;;;;;;10.18;5.65;;;;;;;;;;5073019;28;20039;-83
2022/12/07 02:07:47;;;;;;;12.10;7.95;;;;;;;;;;5073485;28;20039;-82
2022/12/07 02:10:18;;;;;;;11.20;7.47;;;;;;;;;;5071569;28;20447;-82
2022/12/07 02:12:47;;;;;;;7.15;6.18;;;;;;;;;;5072140;28;20522;-85
2022/12/07 02:15:13;;;;;;;12.57;8.98;;;;;;;;;;5071691;28;20485;-82
2022/12/07 02:18:05;;;;;;;17.77;9.85;;;;;;;;;;5071708;28;20483;-85
2022/12/07 02:20:43;;;;;;;13.02;8.43;;;;;;;;;;5072469;28;20024;-85
2022/12/07 02:23:15;;;;;;;12.30;7.82;;;;;;;;;;5070440;28;20567;-84
2022/12/07 02:26:11;;;;;;;13.45;6.20;;;;;;;;;;5073037;28;20020;-82
2022/12/07 02:28:46;;;;;;;10.45;5.35;;;;;;;;;;5075859;28;20119;-87
2022/12/07 02:31:18;;;;;;;12.57;6.93;;;;;;;;;;5076233;28;20085;-83
2022/12/07 02:33:49;;;;;;;9.85;5.63;;;;;;;;;;5078495;28;20031;-85
2022/12/07 02:36:31;;;;;;;6.78;5.43;;;;;;;;;;5076312;28;20024;-83
2022/12/07 02:39:06;;;;;;;7.18;4.80;;;;;;;;;;5077757;28;20403;-83
2022/12/07 02:41:47;;;;;;;9.65;5.88;;;;;;;;;;5077179;28;20036;-83
2022/12/07 02:44:17;;;;;;;9.23;5.65;;;;;;;;;;5076955;28;20376;-85
2022/12/07 02:46:53;;;;;;;11.25;6.85;;;;;;;;;;5076408;28;20585;-83
2022/12/07 02:49:21;;;;;;;8.45;5.63;;;;;;;;;;5075810;28;20498;-85
2022/12/07 02:51:46;;;;;;;13.15;6.72;;;;;;;;;;5076605;28;20032;-84
2022/12/07 02:54:14;;;;;;;7.43;5.38;;;;;;;;;;5074744;28;20027;-85
2022/12/07 02:56:49;;;;;;;7.57;4.78;;;;;;;;;;5075061;28;20044;-82
2022/12/07 02:59:36;;;;;;;4.75;4.05;;;;;;;;;;5076928;28;20028;-82
2022/12/07 03:02:17;;;;;;;9.85;5.88;;;;;;;;;;5075902;28;20107;-84
2022/12/07 03:04:54;;;;;;;7.88;5.78;;;;;;;;;;5075785;28;20069;-82
2022/12/07 03:07:25;;;;;;;11.13;6.53;;;;;;;;;;5072827;28;20082;-83
2022/12/07 03:10:27;;;;;;;13.10;6.05;;;;;;;;;;5076688;28;20031;-82
2022/12/07 03:13:10;;;;;;;5.28;3.85;;;;;;;;;;5065245;28;20037;-85
2022/12/07 03:15:59;;;;;;;7.38;4.82;;;;;;;;;;5074561;28;20040;-81
2022/12/07 03:18:27;;;;;;;15.90;7.20;;;;;;;;;;5074194;28;20029;-83
2022/12/07 03:20:57;;;;;;;7.15;5.18;;;;;;;;;;5073313;28;20050;-83
2022/12/07 03:23:25;;;;;;;6.30;4.15;;;;;;;;;;5074252;28;20024;-83
2022/12/07 03:25:55;;;;;;;6.32;5.20;;;;;;;;;;5074389;28;20036;-82
2022/12/07 03:28:23;;;;;;;5.65;3.20;;;;;;;;;;5075026;28;20361;-83
2022/12/07 03:30:57;;;;;;;5.88;4.03;;;;;;;;;;5075771;28;20020;-85
2022/12/07 03:33:28;;;;;;;9.05;3.75;;;;;;;;;;5076054;28;20067;-86
2022/12/07 03:36:12;;;;;;;5.15;3.80;;;;;;;;;;5075893;28;20035;-83
2022/12/07 03:38:53;;;;;;;6.60;4.43;;;;;;;;;;5076330;28;20024;-84
2022/12/07 03:41:23;;;;;;;10.93;4.05;;;;;;;;;;5075673;28;20025;-83
2022/12/07 03:43:49;;;;;;;11.25;4.57;;;;;;;;;;5075110;28;20016;-83
2022/12/07 03:46:31;;;;;;;4.00;2.22;;;;;;;;;;5076651;28;20476;-82
2022/12/07 03:49:36;;;;;;;4.88;3.03;;;;;;;;;;5074437;28;20063;-83
2022/12/07 03:52:20;;;;;;;2.60;1.67;;;;;;;;;;5074121;28;20028;-82
2022/12/07 03:54:49;;;;;;;5.72;3.08;;;;;;;;;;5075613;28;20039;-84
2022/12/07 03:57:15;;;;;;;4.90;2.65;;;;;;;;;;5073970;28;20044;-84
2022/12/07 03:59:42;;;;;;;3.17;1.85;;;;;;;;;;5074396;28;20070;-82
2022/12/07 04:02:12;;;;;;;3.08;2.65;;;;;;;;;;5073586;28;20047;-83
2022/12/07 04:04:38;;;;;;;3.00;2.72;;;;;;;;;;5106156;28;20417;-83
2022/12/07 04:07:04;;;;;;;4.00;2.00;;;;;;;;;;5074884;28;20024;-83
2022/12/07 04:09:30;;;;;;;2.80;1.60;;;;;;;;;;5075132;28;20387;-82
2022/12/07 04:11:55;;;;;;;7.50;3.45;;;;;;;;;;5074077;28;20024;-84
2022/12/07 04:14:21;;;;;;;6.88;3.25;;;;;;;;;;5074925;28;20064;-83
2022/12/07 04:16:46;;;;;;;6.05;2.92;;;;;;;;;;5073702;28;20020;-83
2022/12/07 04:19:12;;;;;;;4.40;2.97;;;;;;;;;;5074019;28;20389;-81
2022/12/07 04:21:38;;;;;;;5.57;2.95;;;;;;;;;;5073936;28;20111;-84
2022/12/07 04:24:03;;;;;;;4.70;3.17;;;;;;;;;;5074356;28;20074;-84
2022/12/07 04:26:29;;;;;;;8.35;5.30;;;;;;;;;;5073272;28;20036;-81
2022/12/07 04:28:54;;;;;;;7.57;5.35;;;;;;;;;;5072573;28;20677;-82
2022/12/07 04:31:20;;;;;;;7.10;5.53;;;;;;;;;;5072130;28;20024;-83
2022/12/07 04:33:45;;;;;;;7.25;5.28;;;;;;;;;;5073408;28;20039;-83
2022/12/07 04:36:11;;;;;;;6.05;4.55;;;;;;;;;;5072793;28;20395;-83
2022/12/07 04:38:36;;;;;;;5.40;2.85;;;;;;;;;;5073121;28;21927;-83
2022/12/07 04:41:06;;;;;;;5.18;2.65;;;;;;;;;;5072728;28;20099;-84
2022/12/07 04:43:31;;;;;;;5.25;2.88;;;;;;;;;;5070956;28;20033;-82
2022/12/07 04:45:56;;;;;;;4.47;3.28;;;;;;;;;;5069784;28;20107;-82
2022/12/07 04:48:22;;;;;;;14.23;2.92;;;;;;;;;;5070701;28;20020;-84
2022/12/07 04:50:49;;;;;;;6.55;3.47;;;;;;;;;;5067617;28;20028;-83
2022/12/07 04:53:15;;;;;;;7.63;4.68;;;;;;;;;;5070964;28;20789;-83
2022/12/07 04:55:40;;;;;;;3.42;2.92;;;;;;;;;;5069507;28;20049;-83
2022/12/07 04:58:06;;;;;;;6.25;3.60;;;;;;;;;;5067472;28;20392;-83
2022/12/07 05:00:31;;;;;;;4.18;2.53;;;;;;;;;;5071382;28;20499;-84
2022/12/07 05:02:56;;;;;;;6.57;3.72;;;;;;;;;;5069084;28;20582;-82
2022/12/07 05:05:22;;;;;;;5.72;3.00;;;;;;;;;;5070093;28;20066;-83
2022/12/07 05:07:47;;;;;;;3.10;2.83;;;;;;;;;;5072040;28;20024;-83
2022/12/07 05:10:13;;;;;;;3.38;2.75;;;;;;;;;;5071666;28;20048;-82
2022/12/07 05:12:38;;;;;;;3.78;2.58;;;;;;;;;;5072055;28;20089;-86
2022/12/07 05:15:04;;;;;;;3.97;2.90;;;;;;;;;;5070740;28;20037;-86
2022/12/07 05:17:30;;;;;;;5.25;3.05;;;;;;;;;;5070742;28;20027;-83
2022/12/07 05:19:55;;;;;;;7.07;4.82;;;;;;;;;;5071891;28;20025;-86
2022/12/07 05:22:21;;;;;;;3.90;3.50;;;;;;;;;;5070483;28;20064;-85
2022/12/07 05:24:46;;;;;;;15.48;6.18;;;;;;;;;;5071228;28;20492;-88
2022/12/07 05:27:12;;;;;;;11.13;4.72;;;;;;;;;;5070854;28;20024;-85
2022/12/07 05:29:37;;;;;;;9.00;4.35;;;;;;;;;;5071020;28;20475;-86
2022/12/07 05:32:02;;;;;;;11.68;5.13;;;;;;;;;;5071755;28;20032;-85
2022/12/07 05:34:28;;;;;;;7.60;3.80;;;;;;;;;;5070255;28;20025;-86
2022/12/07 05:36:53;;;;;;;7.63;4.03;;;;;;;;;;5070291;28;20025;-84
2022/12/07 05:39:19;;;;;;;5.13;4.63;;;;;;;;;;5070892;28;20036;-87
2022/12/07 05:44:28;;;;;;;9.65;3.35;;;;;;;;;;5069519;28;20066;-84
2022/12/07 05:46:54;;;;;;;4.38;3.65;;;;;;;;;;5071880;28;20052;-82
2022/12/07 05:49:19;;;;;;;4.43;2.75;;;;;;;;;;5071765;28;20032;-83
2022/12/07 05:51:45;;;;;;;10.63;4.68;;;;;;;;;;5071178;28;20028;-81
2022/12/07 05:54:10;;;;;;;11.85;6.00;;;;;;;;;;5066510;28;20032;-83
2022/12/07 05:56:35;;;;;;;8.40;4.88;;;;;;;;;;5070976;28;20040;-83
2022/12/07 06:01:46;;;;;;;9.82;5.35;;;;;;;;;;5069080;28;20139;-84
2022/12/07 06:04:11;;;;;;;9.18;5.40;;;;;;;;;;5074792;28;20060;-84
2022/12/07 06:06:37;;;;;;;11.45;5.85;;;;;;;;;;5074896;28;20027;-85
2022/12/07 06:09:03;;;;;;;8.60;6.28;;;;;;;;;;5071999;28;20020;-80
2022/12/07 06:14:12;;;;;;;10.45;5.15;;;;;;;;;;5070328;28;20054;-80
2022/12/07 06:16:38;;;;;;;15.38;7.90;;;;;;;;;;5074858;28;20032;-85
2022/12/07 06:19:03;;;;;;;12.13;8.27;;;;;;;;;;5074249;28;20088;-85
2022/12/07 06:21:29;;;;;;;13.88;6.85;;;;;;;;;;5072071;28;20208;-81
2022/12/07 06:23:54;;;;;;;10.20;6.68;;;;;;;;;;5074554;28;20044;-81
2022/12/07 06:26:20;;;;;;;8.20;5.90;;;;;;;;;;5074756;28;20050;-84
2022/12/07 06:28:46;;;;;;;6.80;5.47;;;;;;;;;;5075084;28;20024;-85
2022/12/07 06:31:11;;;;;;;9.07;7.30;;;;;;;;;;5075165;28;20476;-85
2022/12/07 06:33:36;;;;;;;13.18;6.45;;;;;;;;;;5074241;28;20027;-82
2022/12/07 06:36:02;;;;;;;11.05;6.10;;;;;;;;;;5073610;28;20020;-83
2022/12/07 06:38:27;;;;;;;14.00;6.53;;;;;;;;;;5074634;28;20437;-83
2022/12/07 06:40:54;;;;;;;18.10;7.28;;;;;;;;;;5074651;28;20020;-83
2022/12/07 06:43:19;;;;;;;8.63;5.85;;;;;;;;;;5074468;28;20028;-82
2022/12/07 06:45:45;;;;;;;9.45;6.50;;;;;;;;;;5073037;28;20037;-82
2022/12/07 06:48:10;;;;;;;8.32;7.53;;;;;;;;;;5073430;28;20388;-82
2022/12/07 06:50:36;;;;;;;13.57;7.78;;;;;;;;;;5070179;28;20028;-84
2022/12/07 06:53:01;;;;;;;19.95;10.98;;;;;;;;;;5071836;28;20016;-86
2022/12/07 06:55:26;;;;;;;14.98;7.78;;;;;;;;;;5072054;28;20037;-86
2022/12/07 06:57:52;;;;;;;19.05;9.30;;;;;;;;;;5072507;28;20441;-79
2022/12/07 07:00:18;;;;;;;19.75;8.60;;;;;;;;;;5072376;28;20036;-82
2022/12/07 07:02:43;;;;;;;14.10;8.68;;;;;;;;;;5073652;28;20045;-83
2022/12/07 07:05:08;;;;;;;15.27;9.73;;;;;;;;;;5072796;28;20024;-82
2022/12/07 07:07:34;;;;;;;14.05;8.43;;;;;;;;;;5072761;28;20478;-81
2022/12/07 07:09:59;;;;;;;22.55;9.82;;;;;;;;;;5073705;28;20020;-81
2022/12/07 07:12:25;;;;;;;14.23;8.20;;;;;;;;;;5073062;28;20021;-81
2022/12/07 07:14:50;;;;;;;21.15;9.98;;;;;;;;;;5073350;28;20028;-82
2022/12/07 07:17:15;;;;;;;12.80;7.22;;;;;;;;;;5073026;28;20025;-83
2022/12/07 07:19:41;;;;;;;21.13;9.82;;;;;;;;;;5072462;28;20032;-83
2022/12/07 07:22:06;;;;;;;18.30;10.57;;;;;;;;;;5072402;28;20067;-81
2022/12/07 07:24:32;;;;;;;12.05;6.30;;;;;;;;;;5069411;28;20025;-81
2022/12/07 07:26:57;;;;;;;18.48;8.52;;;;;;;;;;5073070;28;20021;-82
2022/12/07 07:29:22;;;;;;;22.17;9.20;;;;;;;;;;5071394;28;20059;-80
2022/12/07 07:31:48;;;;;;;10.48;5.80;;;;;;;;;;5070550;28;20100;-82
2022/12/07 07:34:13;;;;;;;23.50;9.50;;;;;;;;;;5068862;28;20027;-79
2022/12/07 07:36:39;;;;;;;9.43;6.05;;;;;;;;;;5071286;28;20028;-82
2022/12/07 07:39:04;;;;;;;14.88;7.55;;;;;;;;;;5069726;28;20040;-81
2022/12/07 07:41:30;;;;;;;20.85;8.45;;;;;;;;;;5068557;28;20082;-79
2022/12/07 07:43:56;;;;;;;14.95;8.15;;;;;;;;;;5068038;28;20040;-80
2022/12/07 07:46:21;;;;;;;10.60;5.88;;;;;;;;;;5069876;28;20034;-85
2022/12/07 07:48:46;;;;;;;10.07;6.97;;;;;;;;;;5070005;28;20530;-81
2022/12/07 07:51:12;;;;;;;10.00;6.43;;;;;;;;;;5068622;28;20036;-79
2022/12/07 07:53:37;;;;;;;21.15;8.85;;;;;;;;;;5069903;28;20100;-81
2022/12/07 07:56:06;;;;;;;12.40;7.47;;;;;;;;;;5071312;28;20071;-82
2022/12/07 07:58:31;;;;;;;8.07;6.55;;;;;;;;;;5069857;28;20028;-82
2022/12/07 08:01:03;;;;;;;13.57;7.85;;;;;;;;;;5068699;28;20408;-81
2022/12/07 08:03:28;;;;;;;9.07;6.53;;;;;;;;;;5069840;28;20028;-80
2022/12/07 08:05:54;;;;;;;10.77;7.30;;;;;;;;;;5070726;28;20029;-79
2022/12/07 08:08:19;;;;;;;15.10;8.10;;;;;;;;;;5072771;28;20796;-80
2022/12/07 08:10:44;;;;;;;17.65;7.70;;;;;;;;;;5070005;28;20031;-80
2022/12/07 08:13:16;;;;;;;10.90;6.43;;;;;;;;;;5071440;28;20024;-82
2022/12/07 08:15:44;;;;;;;14.55;8.55;;;;;;;;;;5071699;28;20365;-83
2022/12/07 08:18:31;;;;;;;9.68;6.82;;;;;;;;;;5070964;28;20109;-83
2022/12/07 08:21:00;;;;;;;15.65;6.97;;;;;;;;;;5051481;28;20123;-84
2022/12/07 09:06:23;;;;;;;17.17;10.13;;;;;;;;;;4822070;29;20089;-82
2022/12/07 09:08:52;;;;;;;23.50;11.48;;;;;;;;;;4897949;29;20055;-85
2022/12/07 09:11:17;;;;;;;21.33;11.77;;;;;;;;;;4983985;28;20536;-82
2022/12/07 09:13:43;;;;;;;26.15;13.38;;;;;;;;;;5028539;28;20037;-85
2022/12/07 09:16:08;;;;;;;19.60;14.07;;;;;;;;;;5029172;28;20109;-84
2022/12/07 09:18:34;;;;;;;22.63;11.73;;;;;;;;;;5011914;28;20037;-84
2022/12/07 09:20:59;;;;;;;26.38;15.10;;;;;;;;;;5028262;28;20057;-82
2022/12/07 09:23:25;;;;;;;25.70;14.48;;;;;;;;;;5028376;28;20094;-86
2022/12/07 09:25:50;;;;;;;22.58;14.00;;;;;;;;;;5018663;28;20037;-81
2022/12/07 09:28:15;;;;;;;24.00;13.82;;;;;;;;;;5029960;28;20029;-85
2022/12/07 09:30:48;;;;;;;24.58;13.57;;;;;;;;;;5029990;28;20033;-85
2022/12/07 09:33:14;;;;;;;22.88;12.00;;;;;;;;;;5028680;28;20033;-83
2022/12/07 09:35:51;;;;;;;22.33;13.32;;;;;;;;;;5031297;28;20492;-82
2022/12/07 09:38:18;;;;;;;28.55;14.63;;;;;;;;;;5029965;28;20056;-84
2022/12/07 09:40:44;;;;;;;21.55;11.02;;;;;;;;;;5031236;28;20029;-83
2022/12/07 09:43:15;;;;;;;25.63;12.88;;;;;;;;;;5029855;28;20049;-84
2022/12/07 09:45:41;;;;;;;29.08;12.98;;;;;;;;;;5028964;28;20112;-82
2022/12/07 09:48:18;;;;;;;21.55;11.48;;;;;;;;;;5030091;28;20032;-83
2022/12/07 09:50:43;;;;;;;11.85;9.75;;;;;;;;;;5027224;28;20078;-82
2022/12/07 09:53:34;;;;;;;29.35;13.27;;;;;;;;;;5028571;28;20022;-82
2022/12/07 09:56:01;;;;;;;21.45;11.15;;;;;;;;;;5052452;28;20036;-83
2022/12/07 09:58:29;;;;;;;21.27;11.05;;;;;;;;;;5070626;28;20052;-83
2022/12/07 10:01:01;;;;;;;14.05;8.82;;;;;;;;;;5069734;28;20096;-84
2022/12/07 10:03:28;;;;;;;10.80;8.13;;;;;;;;;;5069500;28;20047;-85
2022/12/07 10:05:55;;;;;;;12.38;8.50;;;;;;;;;;5070363;28;20017;-82
2022/12/07 10:08:20;;;;;;;16.73;10.43;;;;;;;;;;5068100;28;20032;-81
2022/12/07 10:10:50;;;;;;;19.20;10.00;;;;;;;;;;5069517;28;20039;-83
2022/12/07 10:13:21;;;;;;;27.58;10.55;;;;;;;;;;5069235;28;20480;-81
2022/12/07 10:15:55;;;;;;;19.42;9.85;;;;;;;;;;5068922;28;20044;-82
2022/12/07 10:18:32;;;;;;;14.13;9.25;;;;;;;;;;5068110;28;20135;-79
2022/12/07 10:21:14;;;;;;;15.85;10.15;;;;;;;;;;5068938;28;20047;-79
2022/12/07 10:24:00;;;;;;;17.48;10.88;;;;;;;;;;5067723;28;20025;-80
2022/12/07 10:26:36;;;;;;;18.77;9.80;;;;;;;;;;5066065;28;20028;-81
2022/12/07 10:29:19;;;;;;;14.00;8.70;;;;;;;;;;5065673;28;20033;-83
2022/12/07 10:31:46;;;;;;;14.30;10.23;;;;;;;;;;5065784;28;20162;-83
2022/12/07 10:34:33;;;;;;;16.27;9.95;;;;;;;;;;5068097;28;20051;-83
2022/12/07 10:37:14;;;;;;;16.25;9.07;;;;;;;;;;5068910;28;20423;-83
2022/12/07 10:39:52;;;;;;;25.33;13.20;;;;;;;;;;5069116;28;20111;-84
2022/12/07 10:42:25;;;;;;;16.95;12.32;;;;;;;;;;5069056;28;20404;-83
2022/12/07 10:45:15;;;;;;;11.63;7.78;;;;;;;;;;5068718;28;20082;-82
2022/12/07 10:48:08;;;;;;;16.55;6.22;;;;;;;;;;5068510;28;20111;-82
2022/12/07 10:51:02;;;;;;;10.88;4.32;;;;;;;;;;5071948;28;20126;-80
2022/12/07 10:54:03;;;;;;;10.82;4.85;;;;;;;;;;5073018;28;20535;-81
2022/12/07 10:56:42;;;;;;;9.20;4.97;;;;;;;;;;5071469;28;20040;-81
2022/12/07 10:59:34;;;;;;;15.48;5.55;;;;;;;;;;5071322;28;20460;-82
2022/12/07 11:02:30;;;;;;;13.18;7.88;;;;;;;;;;5072013;28;20037;-82
2022/12/07 11:05:12;;;;;;;9.40;5.50;;;;;;;;;;5072280;28;20035;-81
2022/12/07 11:08:02;;;;;;;13.38;5.93;;;;;;;;;;5072991;28;20530;-84
2022/12/07 11:10:41;;;;;;;8.35;5.15;;;;;;;;;;5073030;28;20040;-85
2022/12/07 11:13:24;;;;;;;10.95;6.47;;;;;;;;;;5071984;28;20025;-82
2022/12/07 11:16:08;;;;;;;6.95;4.18;;;;;;;;;;5072883;28;20055;-82
2022/12/07 11:19:09;;;;;;;17.13;5.10;;;;;;;;;;5072372;28;20044;-83
2022/12/07 11:21:40;;;;;;;11.02;5.80;;;;;;;;;;5071868;28;20028;-84
2022/12/07 11:24:24;;;;;;;8.55;4.90;;;;;;;;;;5069082;28;20035;-84
2022/12/07 11:27:04;;;;;;;9.40;5.35;;;;;;;;;;5071499;28;20017;-83
2022/12/07 11:29:39;;;;;;;7.35;3.42;;;;;;;;;;5071586;28;20031;-81
2022/12/07 11:32:30;;;;;;;5.97;2.75;;;;;;;;;;5072629;28;20043;-81
2022/12/07 11:35:10;;;;;;;5.97;2.50;;;;;;;;;;5072373;28;20035;-82
2022/12/07 11:37:38;;;;;;;13.88;3.95;;;;;;;;;;5070987;28;20032;-81
2022/12/07 11:40:19;;;;;;;3.90;2.75;;;;;;;;;;5068213;28;20028;-81
2022/12/07 11:42:54;;;;;;;3.65;2.45;;;;;;;;;;5066687;28;20044;-83
2022/12/07 11:45:30;;;;;;;2.53;1.80;;;;;;;;;;5072531;28;20039;-83
2022/12/07 11:48:02;;;;;;;2.63;1.75;;;;;;;;;;5068770;28;20029;-81
2022/12/07 11:50:42;;;;;;;3.67;2.22;;;;;;;;;;5067579;28;20039;-82
2022/12/07 11:53:07;;;;;;;4.65;2.88;;;;;;;;;;5072344;28;20090;-83
2022/12/07 11:56:09;;;;;;;2.55;1.80;;;;;;;;;;5070718;28;20418;-81
2022/12/07 11:58:47;;;;;;;4.75;3.17;;;;;;;;;;5070125;28;20060;-82
2022/12/07 12:01:28;;;;;;;3.50;2.70;;;;;;;;;;5070713;28;20080;-82
2022/12/07 12:04:10;;;;;;;7.60;2.95;;;;;;;;;;5072000;28;20035;-84
2022/12/07 12:06:41;;;;;;;4.00;2.55;;;;;;;;;;5072264;28;20036;-82
2022/12/07 12:09:10;;;;;;;4.72;2.67;;;;;;;;;;5071051;28;20025;-82
2022/12/07 12:11:50;;;;;;;4.50;3.22;;;;;;;;;;5072056;28;20020;-81
2022/12/07 12:14:34;;;;;;;6.43;3.03;;;;;;;;;;5070500;28;20472;-83
2022/12/07 12:17:37;;;;;;;3.38;2.20;;;;;;;;;;5072305;28;20024;-84
2022/12/07 12:20:27;;;;;;;6.65;2.97;;;;;;;;;;5070911;28;20024;-83
2022/12/07 12:23:17;;;;;;;4.32;2.13;;;;;;;;;;5072282;28;20086;-81
2022/12/07 12:25:48;;;;;;;4.10;2.40;;;;;;;;;;5069919;28;20120;-83
2022/12/07 12:28:23;;;;;;;3.08;2.33;;;;;;;;;;5072851;28;20032;-80
2022/12/07 12:31:07;;;;;;;4.13;3.35;;;;;;;;;;5072635;28;20229;-82
2022/12/07 12:33:33;;;;;;;6.30;2.08;;;;;;;;;;5072987;28;20024;-83
2022/12/07 12:36:18;;;;;;;4.30;2.40;;;;;;;;;;5071309;28;20024;-82
2022/12/07 12:39:15;;;;;;;5.13;2.58;;;;;;;;;;5071077;28;20032;-83
2022/12/07 12:42:05;;;;;;;5.22;3.03;;;;;;;;;;5067752;28;20076;-81
2022/12/07 12:44:29;;;;;;;4.32;2.45;;;;;;;;;;5070644;28;20434;-82
2022/12/07 12:46:58;;;;;;;8.45;3.35;;;;;;;;;;5072341;28;20028;-81
2022/12/07 12:49:24;;;;;;;5.82;3.75;;;;;;;;;;5069144;28;20028;-84
2022/12/07 12:52:36;;;;;;;9.32;3.00;;;;;;;;;;5072558;28;20028;-80
2022/12/07 12:55:23;;;;;;;5.43;2.63;;;;;;;;;;5015939;28;20456;-81
2022/12/07 12:58:17;;;;;;;6.30;2.72;;;;;;;;;;5061018;28;20047;-80
2022/12/07 13:00:43;;;;;;;5.93;3.08;;;;;;;;;;5071073;28;20054;-80
2022/12/07 13:03:28;;;;;;;4.40;3.22;;;;;;;;;;5072280;28;20068;-81
2022/12/07 13:06:17;;;;;;;6.72;3.28;;;;;;;;;;5071756;28;20032;-81
2022/12/07 13:08:43;;;;;;;7.20;4.30;;;;;;;;;;5069656;28;20020;-83
2022/12/07 13:11:27;;;;;;;2.42;1.80;;;;;;;;;;5071173;28;20448;-82
2022/12/07 13:13:52;;;;;;;4.78;2.65;;;;;;;;;;5071118;28;20020;-82
2022/12/07 13:16:17;;;;;;;7.78;4.25;;;;;;;;;;5072368;28;20369;-82
2022/12/07 13:18:44;;;;;;;6.78;3.30;;;;;;;;;;5071928;28;20074;-84
2022/12/07 13:21:09;;;;;;;5.13;3.72;;;;;;;;;;5070965;28;20506;-82
2022/12/07 13:23:44;;;;;;;4.70;3.40;;;;;;;;;;5072245;28;20020;-83
2022/12/07 13:26:20;;;;;;;13.18;4.40;;;;;;;;;;5071801;28;20021;-82
2022/12/07 13:28:49;;;;;;;6.88;3.25;;;;;;;;;;5071799;28;20487;-83
2022/12/07 13:31:34;;;;;;;7.10;3.70;;;;;;;;;;5071274;28;20081;-83
2022/12/07 13:34:02;;;;;;;8.23;4.20;;;;;;;;;;5071125;28;20113;-81
2022/12/07 13:36:35;;;;;;;7.00;3.38;;;;;;;;;;5071427;28;20101;-81
2022/12/07 13:39:13;;;;;;;6.28;4.28;;;;;;;;;;5069702;28;20021;-84
2022/12/07 13:41:42;;;;;;;12.25;4.07;;;;;;;;;;5070515;28;20119;-83
2022/12/07 13:44:15;;;;;;;6.53;3.35;;;;;;;;;;5070977;28;20029;-81
2022/12/07 13:46:43;;;;;;;5.72;3.92;;;;;;;;;;5071068;28;20117;-84
2022/12/07 13:49:45;;;;;;;11.77;4.15;;;;;;;;;;5070137;28;20024;-82
2022/12/07 13:52:14;;;;;;;5.03;3.80;;;;;;;;;;5046131;28;20048;-82
2022/12/07 13:54:59;;;;;;;6.32;4.03;;;;;;;;;;5070013;28;20361;-83
2022/12/07 13:57:26;;;;;;;12.15;4.28;;;;;;;;;;5069533;28;20036;-83
2022/12/07 13:59:52;;;;;;;5.53;3.25;;;;;;;;;;5067111;28;20044;-81
2022/12/07 14:02:25;;;;;;;10.88;5.72;;;;;;;;;;5069773;28;20075;-83
2022/12/07 14:04:51;;;;;;;15.68;4.28;;;;;;;;;;5071268;28;20464;-84
2022/12/07 14:07:26;;;;;;;7.38;4.38;;;;;;;;;;5070370;28;20028;-82
2022/12/07 14:10:22;;;;;;;6.55;4.30;;;;;;;;;;5069820;28;20020;-84
2022/12/07 14:12:50;;;;;;;7.35;4.57;;;;;;;;;;5066590;28;20047;-81
2022/12/07 14:15:26;;;;;;;13.65;5.63;;;;;;;;;;5071148;28;20417;-83
2022/12/07 14:17:54;;;;;;;6.60;4.25;;;;;;;;;;5070729;28;20027;-81
2022/12/07 14:20:35;;;;;;;5.05;3.85;;;;;;;;;;5070200;28;20024;-83
2022/12/07 14:23:08;;;;;;;6.07;3.88;;;;;;;;;;5070365;28;20025;-82
2022/12/07 14:25:47;;;;;;;6.55;4.55;;;;;;;;;;5072309;28;20020;-83
2022/12/07 14:28:31;;;;;;;5.78;3.63;;;;;;;;;;5072347;28;20032;-82
2022/12/07 14:30:57;;;;;;;6.88;3.38;;;;;;;;;;5072175;28;20074;-81
2022/12/07 14:33:23;;;;;;;4.30;2.45;;;;;;;;;;5073551;28;20054;-84
2022/12/07 14:35:49;;;;;;;7.75;3.47;;;;;;;;;;5073587;28;20031;-83
2022/12/07 14:38:15;;;;;;;4.80;2.97;;;;;;;;;;5074277;28;20025;-85
2022/12/07 14:40:41;;;;;;;10.57;4.00;;;;;;;;;;5075542;28;20033;-84
2022/12/07 14:43:12;;;;;;;8.07;2.30;;;;;;;;;;5072917;28;20043;-84
2022/12/07 14:45:40;;;;;;;6.10;2.47;;;;;;;;;;5072696;28;20074;-85
2022/12/07 14:48:07;;;;;;;4.28;2.40;;;;;;;;;;5073821;28;20016;-83
2022/12/07 14:50:41;;;;;;;4.50;1.77;;;;;;;;;;5072443;28;20085;-84
2022/12/07 14:53:14;;;;;;;4.05;1.33;;;;;;;;;;5071897;28;20086;-83
2022/12/07 14:55:40;;;;;;;3.28;2.00;;;;;;;;;;5071098;28;20030;-83
2022/12/07 14:58:05;;;;;;;4.13;2.17;;;;;;;;;;5073340;28;20386;-84
2022/12/07 15:00:31;;;;;;;2.88;2.33;;;;;;;;;;5071464;28;20456;-84
2022/12/07 15:02:57;;;;;;;4.10;3.17;;;;;;;;;;5072182;28;20025;-82
2022/12/07 15:05:22;;;;;;;1.98;1.55;;;;;;;;;;5072032;28;20039;-83
2022/12/07 15:07:49;;;;;;;17.70;3.80;;;;;;;;;;5073888;28;20025;-81
2022/12/07 15:10:23;;;;;;;4.93;2.97;;;;;;;;;;5074236;28;20079;-83
2022/12/07 15:12:48;;;;;;;29.33;10.52;;;;;;;;;;5088669;28;20036;-82
2022/12/07 15:15:14;;;;;;;5.22;2.97;;;;;;;;;;5071581;28;20036;-81
2022/12/07 15:17:40;;;;;;;15.65;6.50;;;;;;;;;;5073415;28;20471;-84
2022/12/07 15:20:11;;;;;;;6.95;4.75;;;;;;;;;;5073977;28;20029;-81
2022/12/07 15:22:36;;;;;;;16.25;5.10;;;;;;;;;;5073667;28;20028;-82
2022/12/07 15:25:03;;;;;;;6.47;5.28;;;;;;;;;;5071485;28;20461;-82
2022/12/07 15:27:30;;;;;;;7.82;4.53;;;;;;;;;;5072659;28;20433;-81
2022/12/07 15:29:55;;;;;;;4.38;3.58;;;;;;;;;;5067822;28;20035;-80
2022/12/07 15:32:24;;;;;;;4.13;2.22;;;;;;;;;;5069802;28;20028;-83
2022/12/07 15:34:49;;;;;;;3.53;2.65;;;;;;;;;;5071149;28;20388;-83
2022/12/07 15:37:15;;;;;;;6.47;4.40;;;;;;;;;;5070359;28;20039;-82
2022/12/07 15:39:40;;;;;;;5.28;2.95;;;;;;;;;;5073660;28;20093;-84
2022/12/07 15:42:06;;;;;;;6.10;3.25;;;;;;;;;;5069165;28;20472;-83
2022/12/07 15:47:15;;;;;;;3.25;1.90;;;;;;;;;;5072405;28;20035;-81
2022/12/07 15:49:41;;;;;;;7.57;3.28;;;;;;;;;;5072068;28;20380;-82
2022/12/07 15:52:06;;;;;;;9.40;4.18;;;;;;;;;;5071298;28;20031;-82
2022/12/07 15:54:32;;;;;;;5.47;3.63;;;;;;;;;;5071130;28;20123;-81